Time;durP1;ratioP1;P1;durP2;ratioP2;P2;SDS_P1;SDS_P2;PMS_P1;PMS_P2;Temp;Humidity;BMP_temperature;BMP_pressure;BME280_temperature;BME280_humidity;BME280_pressure;Samples;Min_cycle;Max_cycle;Signal;HPM_P1;HPM_P2
2022/03/26 00:01:37;;;;;;;30.50;11.55;;;4.00;99.90;;;;;;5042003;28;20081;-81
2022/03/26 00:04:03;;;;;;;34.83;13.02;;;4.00;99.90;;;;;;5065020;23;20052;-80
2022/03/26 00:06:29;;;;;;;30.02;13.05;;;4.00;99.90;;;;;;5058247;28;20049;-80
2022/03/26 00:08:55;;;;;;;31.48;12.13;;;3.90;99.90;;;;;;5054996;28;20033;-81
2022/03/26 00:11:23;;;;;;;30.40;11.60;;;3.90;99.90;;;;;;5038419;28;20037;-81
2022/03/26 00:13:52;;;;;;;33.60;12.43;;;3.90;99.90;;;;;;5039495;28;20089;-81
2022/03/26 00:16:53;;;;;;;35.78;12.00;;;3.80;99.90;;;;;;5055206;28;20047;-80
2022/03/26 00:19:19;;;;;;;29.60;12.02;;;3.80;99.90;;;;;;5038212;28;20405;-81
2022/03/26 00:21:48;;;;;;;34.30;11.98;;;3.90;99.90;;;;;;5039605;28;20012;-80
2022/03/26 00:24:14;;;;;;;31.88;13.05;;;3.90;99.90;;;;;;5058038;28;20017;-81
2022/03/26 00:26:47;;;;;;;32.20;12.02;;;3.90;99.90;;;;;;5039127;28;20024;-80
2022/03/26 00:29:12;;;;;;;28.65;11.43;;;3.90;99.90;;;;;;5038376;28;20077;-80
2022/03/26 00:31:38;;;;;;;26.98;11.77;;;3.80;99.90;;;;;;5054143;28;20079;-80
2022/03/26 00:34:11;;;;;;;27.77;10.68;;;3.80;99.90;;;;;;5038989;28;20014;-80
2022/03/26 00:36:36;;;;;;;31.15;12.20;;;3.80;99.90;;;;;;5038662;28;20021;-80
2022/03/26 00:39:03;;;;;;;33.13;14.65;;;3.80;99.90;;;;;;5037313;28;20101;-80
2022/03/26 00:41:28;;;;;;;30.20;12.07;;;3.70;99.90;;;;;;5039383;28;20032;-79
2022/03/26 00:44:06;;;;;;;26.27;11.50;;;3.80;99.90;;;;;;5054833;28;20030;-78
2022/03/26 00:46:31;;;;;;;39.15;13.77;;;3.50;99.90;;;;;;5039776;28;20041;-81
2022/03/26 00:48:58;;;;;;;30.05;10.90;;;3.70;99.90;;;;;;5055646;28;20013;-80
2022/03/26 00:51:24;;;;;;;28.05;10.98;;;3.60;99.90;;;;;;5036838;28;20026;-81
2022/03/26 00:53:54;;;;;;;37.05;13.90;;;3.50;99.90;;;;;;5036975;28;20186;-80
2022/03/26 00:56:20;;;;;;;30.02;12.00;;;3.40;99.90;;;;;;5038167;28;20037;-80
2022/03/26 00:58:46;;;;;;;34.10;13.23;;;3.40;99.90;;;;;;5036755;28;20034;-80
2022/03/26 01:01:12;;;;;;;31.27;11.57;;;3.40;99.90;;;;;;5038131;28;20029;-81
2022/03/26 01:03:38;;;;;;;32.00;14.18;;;3.70;99.90;;;;;;5054603;28;20005;-81
2022/03/26 01:06:18;;;;;;;28.33;11.65;;;3.70;99.90;;;;;;5038986;28;20025;-81
2022/03/26 01:09:01;;;;;;;29.70;12.23;;;3.60;99.90;;;;;;5037812;28;20037;-81
2022/03/26 01:11:26;;;;;;;29.50;11.32;;;3.50;99.90;;;;;;5037004;28;20013;-81
2022/03/26 01:14:12;;;;;;;35.30;11.80;;;3.40;99.90;;;;;;5053084;28;20037;-80
2022/03/26 01:16:38;;;;;;;35.38;11.73;;;3.30;99.90;;;;;;5036686;28;20017;-80
2022/03/26 01:19:04;;;;;;;32.17;11.85;;;3.20;99.90;;;;;;5053968;28;20036;-80
2022/03/26 01:21:30;;;;;;;31.55;11.90;;;3.30;99.90;;;;;;5036957;28;20029;-81
2022/03/26 01:23:55;;;;;;;34.72;13.35;;;3.40;99.90;;;;;;5037229;28;20056;-81
2022/03/26 01:26:29;;;;;;;31.85;13.10;;;3.40;99.90;;;;;;5037108;28;20021;-81
2022/03/26 01:29:04;;;;;;;28.05;11.50;;;3.30;99.90;;;;;;5036197;28;20029;-80
2022/03/26 01:31:38;;;;;;;30.77;11.70;;;3.30;99.90;;;;;;5051905;28;20056;-81
2022/03/26 01:34:07;;;;;;;32.75;13.40;;;3.10;99.90;;;;;;5035771;28;20033;-79
2022/03/26 01:36:33;;;;;;;33.45;12.20;;;3.00;99.90;;;;;;5054300;28;20017;-80
2022/03/26 01:38:59;;;;;;;31.45;11.90;;;2.90;99.90;;;;;;5035169;28;20021;-79
2022/03/26 01:41:27;;;;;;;32.33;12.57;;;3.00;99.90;;;;;;5034806;28;20108;-80
2022/03/26 01:43:55;;;;;;;26.13;11.43;;;2.90;99.90;;;;;;5052610;28;20013;-80
2022/03/26 01:46:21;;;;;;;32.75;12.52;;;2.80;99.90;;;;;;5052066;28;20037;-80
2022/03/26 01:48:48;;;;;;;31.65;13.10;;;2.70;99.90;;;;;;5035473;28;20029;-80
2022/03/26 01:51:22;;;;;;;37.38;13.38;;;2.70;99.90;;;;;;5036547;28;20009;-80
2022/03/26 01:54:11;;;;;;;29.85;11.32;;;2.80;99.90;;;;;;5035370;28;20078;-80
2022/03/26 01:56:38;;;;;;;29.63;13.20;;;2.80;99.90;;;;;;5033765;28;20101;-80
2022/03/26 01:59:05;;;;;;;31.38;13.05;;;2.80;99.90;;;;;;5035985;28;20016;-80
2022/03/26 02:01:35;;;;;;;36.40;11.93;;;2.70;99.90;;;;;;5036299;28;20029;-80
2022/03/26 02:04:03;;;;;;;37.22;13.95;;;2.60;99.90;;;;;;5052459;28;20033;-80
2022/03/26 02:06:33;;;;;;;35.97;13.77;;;2.70;99.90;;;;;;5052109;28;20023;-80
2022/03/26 02:09:21;;;;;;;36.60;12.50;;;2.70;99.90;;;;;;5033576;28;20017;-80
2022/03/26 02:11:47;;;;;;;34.63;11.67;;;2.70;99.90;;;;;;5035066;28;20089;-80
2022/03/26 02:14:15;;;;;;;34.58;12.85;;;2.70;99.90;;;;;;5053533;28;20256;-79
2022/03/26 02:16:42;;;;;;;33.88;13.40;;;2.80;99.90;;;;;;5035552;28;20044;-79
2022/03/26 02:19:13;;;;;;;36.53;12.88;;;2.80;99.90;;;;;;5035730;28;20010;-81
2022/03/26 02:21:39;;;;;;;40.05;14.25;;;2.80;99.90;;;;;;5034946;28;20009;-81
2022/03/26 02:24:06;;;;;;;34.03;13.73;;;2.80;99.90;;;;;;5035548;28;20025;-78
2022/03/26 02:26:47;;;;;;;33.13;12.73;;;2.70;99.90;;;;;;5036769;28;20038;-81
2022/03/26 02:29:13;;;;;;;29.92;12.30;;;2.70;99.90;;;;;;5036545;28;20010;-80
2022/03/26 02:31:39;;;;;;;34.33;12.40;;;2.70;99.90;;;;;;5036102;28;20022;-80
2022/03/26 02:34:07;;;;;;;29.42;12.63;;;2.70;99.90;;;;;;5052894;28;20088;-81
2022/03/26 02:36:33;;;;;;;33.42;12.93;;;2.60;99.90;;;;;;5036316;28;20014;-80
2022/03/26 02:38:59;;;;;;;36.33;13.57;;;2.60;99.90;;;;;;5035529;28;20032;-79
2022/03/26 02:41:24;;;;;;;32.60;12.95;;;2.70;99.90;;;;;;5034087;28;20050;-80
2022/03/26 02:43:50;;;;;;;33.78;13.80;;;2.60;99.90;;;;;;5049707;28;20057;-80
2022/03/26 02:46:16;;;;;;;36.13;13.70;;;2.60;99.90;;;;;;5050385;28;20025;-79
2022/03/26 02:48:44;;;;;;;37.10;14.63;;;2.60;99.90;;;;;;5033389;28;20013;-80
2022/03/26 02:51:10;;;;;;;33.28;13.32;;;2.60;99.90;;;;;;5034708;28;20589;-79
2022/03/26 02:53:36;;;;;;;33.30;13.13;;;2.60;99.90;;;;;;5051752;28;20040;-80
2022/03/26 02:56:01;;;;;;;36.13;14.18;;;2.60;99.90;;;;;;5034083;28;20025;-79
2022/03/26 02:58:27;;;;;;;35.00;13.93;;;2.50;99.90;;;;;;5051137;28;20060;-79
2022/03/26 03:00:53;;;;;;;32.55;13.45;;;2.60;99.90;;;;;;5033747;28;20002;-79
2022/03/26 03:03:19;;;;;;;34.92;13.73;;;2.60;99.90;;;;;;5050313;28;20152;-80
2022/03/26 03:05:47;;;;;;;42.08;14.82;;;2.40;99.90;;;;;;5033078;28;20041;-80
2022/03/26 03:08:15;;;;;;;39.55;15.75;;;2.40;99.90;;;;;;5033932;28;20036;-79
2022/03/26 03:10:42;;;;;;;35.17;12.32;;;2.40;99.90;;;;;;5035014;28;20052;-80
2022/03/26 03:13:21;;;;;;;42.33;14.73;;;2.50;99.90;;;;;;5035697;28;20044;-79
2022/03/26 03:15:47;;;;;;;40.55;14.48;;;2.60;99.90;;;;;;5033910;28;20025;-80
2022/03/26 03:18:12;;;;;;;31.60;12.98;;;2.50;99.90;;;;;;5034074;28;20121;-80
2022/03/26 03:20:42;;;;;;;35.03;12.93;;;2.40;99.90;;;;;;5034714;28;20285;-80
2022/03/26 03:23:09;;;;;;;34.35;14.27;;;2.30;99.90;;;;;;5036159;28;20025;-80
2022/03/26 03:25:34;;;;;;;35.35;13.57;;;2.30;99.90;;;;;;5034346;28;20010;-80
2022/03/26 03:28:00;;;;;;;38.30;13.10;;;2.30;99.90;;;;;;5051063;28;20224;-80
2022/03/26 03:30:28;;;;;;;36.40;13.23;;;2.20;99.90;;;;;;5032587;28;20041;-79
2022/03/26 03:32:54;;;;;;;35.20;14.73;;;2.30;99.90;;;;;;5030147;28;20029;-80
2022/03/26 03:35:21;;;;;;;36.15;13.57;;;2.40;99.90;;;;;;5037818;28;20029;-80
2022/03/26 03:38:02;;;;;;;35.97;13.52;;;2.40;99.90;;;;;;5053984;28;20512;-80
2022/03/26 03:40:28;;;;;;;35.65;13.63;;;2.40;99.90;;;;;;5037112;28;20089;-79
2022/03/26 03:42:54;;;;;;;40.05;14.55;;;2.40;99.90;;;;;;5036856;28;20006;-79
2022/03/26 03:45:21;;;;;;;32.72;12.55;;;2.40;99.90;;;;;;5037137;28;20040;-80
2022/03/26 03:47:46;;;;;;;36.03;14.20;;;2.30;99.90;;;;;;5037595;28;20008;-80
2022/03/26 03:50:12;;;;;;;44.25;15.98;;;2.20;99.90;;;;;;5035969;28;20009;-79
2022/03/26 03:52:38;;;;;;;41.55;15.48;;;2.20;99.90;;;;;;5054999;28;20021;-80
2022/03/26 03:55:08;;;;;;;36.58;13.73;;;2.20;99.90;;;;;;5054745;28;20014;-79
2022/03/26 03:57:34;;;;;;;46.53;14.95;;;2.30;99.90;;;;;;5035633;28;20030;-80
2022/03/26 04:00:01;;;;;;;32.95;12.65;;;2.40;99.90;;;;;;5037481;28;20109;-80
2022/03/26 04:02:27;;;;;;;44.58;13.80;;;2.30;99.90;;;;;;5034761;28;20008;-80
2022/03/26 04:04:52;;;;;;;40.13;13.95;;;2.10;99.90;;;;;;5034980;28;20042;-79
2022/03/26 04:07:18;;;;;;;34.38;15.13;;;2.00;99.90;;;;;;5038751;28;20048;-79
2022/03/26 04:09:44;;;;;;;35.30;13.95;;;1.90;99.90;;;;;;5056668;28;20020;-80
2022/03/26 04:12:11;;;;;;;34.00;14.50;;;1.90;99.90;;;;;;5057457;28;20040;-80
2022/03/26 04:14:43;;;;;;;39.03;13.55;;;1.80;99.90;;;;;;5040531;28;20548;-80
2022/03/26 04:17:13;;;;;;;36.17;14.65;;;1.80;99.90;;;;;;5058463;28;20047;-81
2022/03/26 04:19:40;;;;;;;33.20;12.23;;;1.80;99.90;;;;;;5040992;28;20037;-80
2022/03/26 04:22:16;;;;;;;35.65;14.30;;;1.90;99.90;;;;;;5039131;28;20014;-80
2022/03/26 04:24:41;;;;;;;39.67;14.57;;;1.90;99.90;;;;;;5041135;28;20029;-79
2022/03/26 04:27:15;;;;;;;38.20;14.23;;;1.90;99.90;;;;;;5040431;28;20117;-80
2022/03/26 04:29:40;;;;;;;42.65;14.82;;;1.80;99.90;;;;;;5040017;28;20081;-80
2022/03/26 04:32:06;;;;;;;37.17;14.27;;;1.70;99.90;;;;;;5040823;28;20017;-80
2022/03/26 04:34:32;;;;;;;39.58;14.45;;;1.70;99.90;;;;;;5039137;28;20009;-81
2022/03/26 04:36:58;;;;;;;36.22;14.23;;;1.60;99.90;;;;;;5056535;28;20018;-80
2022/03/26 04:39:23;;;;;;;36.47;14.13;;;1.60;99.90;;;;;;5038940;28;20056;-80
2022/03/26 04:41:49;;;;;;;41.80;14.57;;;1.50;99.90;;;;;;5040655;28;20462;-79
2022/03/26 04:44:15;;;;;;;40.42;14.75;;;1.50;99.90;;;;;;5038182;28;20056;-80
2022/03/26 04:46:41;;;;;;;40.72;15.70;;;1.60;99.90;;;;;;5040163;28;20431;-79
2022/03/26 04:49:07;;;;;;;42.53;14.93;;;1.60;99.90;;;;;;5038939;28;20040;-80
2022/03/26 04:51:41;;;;;;;35.83;13.80;;;1.50;99.90;;;;;;5057745;28;20021;-80
2022/03/26 04:54:06;;;;;;;47.28;16.15;;;1.40;99.90;;;;;;5039694;28;20025;-80
2022/03/26 04:56:32;;;;;;;41.05;15.98;;;1.40;99.90;;;;;;5038976;28;20033;-80
2022/03/26 04:58:58;;;;;;;42.35;15.73;;;1.50;99.90;;;;;;5039040;28;20026;-80
2022/03/26 05:01:24;;;;;;;37.75;12.60;;;1.50;99.90;;;;;;5040196;28;20033;-80
2022/03/26 05:03:50;;;;;;;42.50;14.52;;;1.50;99.90;;;;;;5040110;28;20037;-79
2022/03/26 05:06:16;;;;;;;41.97;15.68;;;1.50;99.90;;;;;;5040638;28;20051;-80
2022/03/26 05:08:42;;;;;;;36.30;14.30;;;1.40;99.90;;;;;;5040294;28;20009;-80
2022/03/26 05:11:07;;;;;;;35.65;13.75;;;1.30;99.90;;;;;;5039418;28;20025;-80
2022/03/26 05:13:33;;;;;;;38.45;13.82;;;1.20;99.90;;;;;;5039178;28;20013;-79
2022/03/26 05:16:03;;;;;;;49.78;13.23;;;1.20;99.90;;;;;;5037611;28;20009;-79
2022/03/26 05:18:31;;;;;;;43.22;15.00;;;1.10;99.90;;;;;;5039775;28;20048;-80
2022/03/26 05:20:57;;;;;;;37.33;13.53;;;1.00;99.90;;;;;;5038490;28;20014;-80
2022/03/26 05:23:33;;;;;;;38.15;14.82;;;1.00;99.90;;;;;;5037863;28;20014;-80
2022/03/26 05:26:22;;;;;;;38.53;14.57;;;1.00;99.90;;;;;;5055913;28;20056;-80
2022/03/26 05:28:49;;;;;;;43.85;16.75;;;1.10;99.90;;;;;;5123732;23;20049;-80
2022/03/26 05:31:15;;;;;;;44.22;15.73;;;1.20;99.90;;;;;;5053575;28;20013;-80
2022/03/26 05:33:43;;;;;;;39.20;14.80;;;1.40;99.90;;;;;;5056172;28;20032;-80
2022/03/26 05:36:09;;;;;;;38.75;14.50;;;1.40;99.90;;;;;;5039329;28;20017;-80
2022/03/26 05:38:34;;;;;;;35.75;13.23;;;1.40;99.90;;;;;;5038213;28;20424;-80
2022/03/26 05:41:00;;;;;;;38.53;13.90;;;1.30;99.90;;;;;;5039892;28;20010;-80
2022/03/26 05:43:26;;;;;;;38.13;14.50;;;1.30;99.90;;;;;;5037506;28;20037;-80
2022/03/26 05:46:11;;;;;;;38.75;15.20;;;1.40;99.90;;;;;;5056226;28;20022;-79
2022/03/26 05:48:37;;;;;;;46.15;16.10;;;1.40;99.90;;;;;;5038965;28;20030;-80
2022/03/26 05:51:03;;;;;;;40.83;15.23;;;1.50;99.90;;;;;;5054246;28;20045;-79
2022/03/26 05:53:29;;;;;;;34.45;14.05;;;1.50;99.90;;;;;;5055741;28;20009;-80
2022/03/26 05:56:10;;;;;;;37.03;13.77;;;1.50;99.90;;;;;;5036979;28;20036;-80
2022/03/26 05:58:36;;;;;;;42.72;15.23;;;1.70;99.90;;;;;;5036609;28;20028;-80
2022/03/26 06:01:12;;;;;;;41.60;14.40;;;1.70;99.90;;;;;;5037348;28;20073;-80
2022/03/26 06:03:58;;;;;;;34.35;15.05;;;1.70;99.90;;;;;;5054738;28;20479;-80
2022/03/26 06:06:25;;;;;;;37.90;13.60;;;1.80;99.90;;;;;;5037659;28;20013;-80
2022/03/26 06:08:51;;;;;;;33.67;13.00;;;1.80;99.90;;;;;;5038942;28;20005;-80
2022/03/26 06:11:20;;;;;;;40.17;14.63;;;1.90;99.90;;;;;;5036095;28;20009;-80
2022/03/26 06:13:45;;;;;;;31.48;13.38;;;2.00;99.90;;;;;;5036463;28;20026;-79
2022/03/26 06:16:15;;;;;;;40.28;15.68;;;2.20;99.90;;;;;;5038416;28;20056;-80
2022/03/26 06:18:42;;;;;;;36.85;14.43;;;2.40;99.90;;;;;;5037790;28;20037;-80
2022/03/26 06:21:14;;;;;;;38.55;13.77;;;2.50;99.90;;;;;;5053087;28;20010;-80
2022/03/26 06:23:40;;;;;;;43.33;15.23;;;2.80;99.90;;;;;;5054493;28;20022;-80
2022/03/26 06:26:06;;;;;;;36.60;15.95;;;3.00;99.90;;;;;;5038008;28;20021;-80
2022/03/26 06:28:32;;;;;;;44.20;15.38;;;3.30;99.90;;;;;;5054059;28;20084;-80
2022/03/26 06:31:02;;;;;;;38.80;14.50;;;3.40;99.90;;;;;;5054631;28;20040;-80
2022/03/26 06:33:39;;;;;;;39.65;14.85;;;3.70;99.90;;;;;;5038861;28;20013;-81
2022/03/26 06:36:05;;;;;;;43.13;15.90;;;3.90;99.90;;;;;;5037836;28;20021;-81
2022/03/26 06:38:41;;;;;;;45.15;14.98;;;4.00;99.90;;;;;;5055524;28;20057;-80
2022/03/26 06:41:24;;;;;;;36.38;14.70;;;4.30;99.90;;;;;;5053083;28;20056;-81
2022/03/26 06:43:51;;;;;;;41.03;17.02;;;4.50;99.90;;;;;;5056382;28;20013;-81
2022/03/26 06:46:23;;;;;;;38.47;15.32;;;4.60;99.90;;;;;;5054355;28;20032;-81
2022/03/26 06:48:49;;;;;;;39.53;15.38;;;4.70;99.90;;;;;;5039117;28;20037;-81
2022/03/26 06:51:14;;;;;;;40.88;15.95;;;4.90;99.90;;;;;;5030462;28;20112;-83
2022/03/26 06:53:40;;;;;;;42.30;16.38;;;5.10;99.90;;;;;;5051198;28;20010;-82
2022/03/26 06:56:08;;;;;;;34.10;14.57;;;5.20;99.90;;;;;;5051762;28;20085;-81
2022/03/26 06:58:34;;;;;;;41.10;16.15;;;5.40;99.90;;;;;;5035533;28;20105;-82
2022/03/26 07:01:01;;;;;;;41.97;15.40;;;5.50;99.90;;;;;;5054216;28;20005;-81
2022/03/26 07:03:27;;;;;;;45.80;16.67;;;5.70;99.90;;;;;;5037909;28;20028;-81
2022/03/26 07:05:52;;;;;;;42.67;15.73;;;5.80;99.90;;;;;;5038933;28;20018;-82
2022/03/26 07:08:18;;;;;;;40.35;16.00;;;5.90;99.90;;;;;;5058325;28;20021;-84
2022/03/26 07:10:45;;;;;;;44.20;15.27;;;6.10;99.90;;;;;;5043080;28;20084;-82
2022/03/26 07:13:14;;;;;;;43.83;16.83;;;6.20;99.90;;;;;;5046159;28;20032;-81
2022/03/26 07:16:01;;;;;;;40.60;16.85;;;6.40;99.90;;;;;;5038620;28;20025;-81
2022/03/26 07:18:26;;;;;;;41.35;16.95;;;6.70;99.90;;;;;;5039264;28;20047;-83
2022/03/26 07:20:57;;;;;;;45.80;17.95;;;6.80;99.90;;;;;;5038390;28;20069;-81
2022/03/26 07:23:22;;;;;;;45.42;17.58;;;6.70;99.90;;;;;;5040826;28;20026;-82
2022/03/26 07:26:12;;;;;;;40.55;15.77;;;6.70;99.90;;;;;;5044024;28;20486;-79
2022/03/26 07:28:38;;;;;;;42.30;15.98;;;4.70;99.90;;;;;;5039684;28;20057;-82
2022/03/26 07:31:04;;;;;;;45.55;17.27;;;6.80;99.90;;;;;;5037996;28;20144;-82
2022/03/26 07:34:22;;;;;;;39.58;16.73;;;7.00;99.90;;;;;;5034136;28;20025;-82
2022/03/26 07:36:48;;;;;;;36.33;14.95;;;8.20;99.90;;;;;;5034553;28;20053;-84
2022/03/26 07:39:15;;;;;;;44.20;16.58;;;7.20;99.90;;;;;;5037691;28;20021;-81
2022/03/26 07:41:40;;;;;;;40.88;14.70;;;7.30;99.90;;;;;;5033402;28;20051;-81
2022/03/26 07:44:07;;;;;;;37.35;14.95;;;7.40;99.90;;;;;;5028554;28;20061;-82
2022/03/26 07:46:37;;;;;;;38.33;14.60;;;7.30;99.90;;;;;;5025404;28;20485;-83
2022/03/26 07:49:02;;;;;;;;;;;7.40;99.90;;;;;;5032324;28;20057;-80
2022/03/26 07:51:28;;;;;;;39.25;14.57;;;7.50;99.90;;;;;;5030450;28;19905;-81
2022/03/26 07:53:54;;;;;;;38.70;16.80;;;7.60;99.90;;;;;;5049584;28;20109;-83
2022/03/26 07:56:20;;;;;;;39.90;17.23;;;7.70;99.00;;;;;;5030326;28;20021;-81
2022/03/26 07:58:54;;;;;;;39.75;15.15;;;7.70;99.10;;;;;;5047400;28;20048;-83
2022/03/26 08:01:19;;;;;;;34.65;15.70;;;8.10;96.00;;;;;;5047620;28;20028;-80
2022/03/26 08:03:54;;;;;;;39.35;14.68;;;8.20;94.60;;;;;;5034408;28;20073;-84
2022/03/26 08:06:21;;;;;;;35.55;15.40;;;8.10;95.30;;;;;;5023207;28;20538;-80
2022/03/26 08:08:47;;;;;;;40.33;17.40;;;8.20;95.50;;;;;;5035232;28;20120;-81
2022/03/26 08:11:13;;;;;;;46.08;16.42;;;8.00;95.60;;;;;;5018893;28;20481;-83
2022/03/26 08:13:39;;;;;;;40.97;15.50;;;8.10;96.80;;;;;;5019100;28;20037;-82
2022/03/26 08:16:05;;;;;;;34.03;15.75;;;8.30;94.90;;;;;;5042857;28;20028;-80
2022/03/26 08:18:30;;;;;;;41.35;16.13;;;8.60;95.30;;;;;;5041230;28;20029;-82
2022/03/26 08:20:56;;;;;;;43.20;18.70;;;8.70;93.20;;;;;;5027767;28;20052;-83
2022/03/26 08:23:22;;;;;;;42.88;16.77;;;8.70;93.60;;;;;;5033082;28;20045;-82
2022/03/26 08:28:31;;;;;;;38.75;15.60;;;8.60;92.70;;;;;;5037024;28;20048;-81
2022/03/26 08:30:57;;;;;;;44.75;16.52;;;8.80;93.30;;;;;;5020713;28;20034;-84
2022/03/26 08:33:23;;;;;;;41.30;14.60;;;8.90;93.00;;;;;;5019910;28;20067;-82
2022/03/26 08:35:48;;;;;;;44.22;17.52;;;9.20;91.60;;;;;;5017574;28;20120;-83
2022/03/26 08:38:14;;;;;;;33.65;15.00;;;9.30;90.10;;;;;;5026429;28;20033;-82
2022/03/26 08:40:40;;;;;;;43.78;17.40;;;9.40;90.30;;;;;;5039170;28;20500;-79
2022/03/26 08:43:13;;;;;;;44.33;16.92;;;9.10;90.40;;;;;;5047897;28;20016;-84
2022/03/26 08:45:40;;;;;;;44.15;17.90;;;9.30;91.20;;;;;;5024520;28;20064;-80
2022/03/26 08:48:08;;;;;;;43.25;16.20;;;9.30;92.20;;;;;;5036237;28;20022;-81
2022/03/26 08:50:34;;;;;;;39.53;17.38;;;9.60;90.40;;;;;;5035140;28;20021;-81
2022/03/26 08:53:00;;;;;;;41.38;17.33;;;9.90;90.50;;;;;;5042811;28;20532;-82
2022/03/26 08:55:26;;;;;;;34.13;15.95;;;10.10;86.10;;;;;;5043673;28;20091;-82
2022/03/26 08:57:52;;;;;;;43.17;18.65;;;10.40;84.90;;;;;;5028957;28;20034;-79
2022/03/26 09:00:19;;;;;;;40.75;16.02;;;10.40;85.10;;;;;;5028581;28;20029;-80
2022/03/26 09:02:45;;;;;;;41.83;16.30;;;9.90;83.60;;;;;;5028469;28;20029;-81
2022/03/26 09:05:28;;;;;;;38.70;15.88;;;10.00;87.00;;;;;;5036219;28;20022;-82
2022/03/26 09:08:03;;;;;;;39.25;16.13;;;10.20;84.30;;;;;;5037294;28;20040;-82
2022/03/26 09:10:29;;;;;;;38.92;15.70;;;7.60;83.00;;;;;;5032943;28;20057;-83
2022/03/26 09:13:01;;;;;;;40.67;17.20;;;10.10;85.00;;;;;;5035093;28;20009;-83
2022/03/26 09:15:27;;;;;;;38.35;16.02;;;10.00;81.60;;;;;;5025410;28;20394;-81
2022/03/26 09:17:52;;;;;;;41.65;15.82;;;10.20;82.30;;;;;;5035426;28;20045;-82
2022/03/26 09:20:18;;;;;;;38.95;16.65;;;10.30;82.40;;;;;;5017838;28;20014;-81
2022/03/26 09:22:44;;;;;;;41.17;16.08;;;10.40;79.90;;;;;;5036599;28;20033;-79
2022/03/26 09:25:10;;;;;;;38.42;15.77;;;10.40;78.80;;;;;;5022899;28;20017;-84
2022/03/26 09:27:36;;;;;;;39.38;16.40;;;10.60;80.00;;;;;;5030233;28;20177;-83
2022/03/26 09:30:18;;;;;;;42.38;17.00;;;10.70;77.40;;;;;;5024990;28;20049;-84
2022/03/26 09:32:45;;;;;;;37.47;14.98;;;10.80;76.90;;;;;;5042662;23;20418;-81
2022/03/26 09:35:31;;;;;;;37.47;17.70;;;10.90;76.10;;;;;;5030403;28;20010;-84
2022/03/26 09:37:59;;;;;;;40.22;16.73;;;10.80;77.70;;;;;;5033148;28;20048;-82
2022/03/26 09:40:27;;;;;;;38.00;16.00;;;10.90;76.80;;;;;;5010753;28;20052;-83
2022/03/26 09:42:59;;;;;;;45.47;18.85;;;11.00;75.40;;;;;;5010492;28;20049;-83
2022/03/26 09:45:36;;;;;;;38.25;15.98;;;11.10;77.20;;;;;;4996094;28;20022;-84
2022/03/26 09:48:26;;;;;;;41.65;16.05;;;11.40;74.60;;;;;;5015876;28;20037;-83
2022/03/26 09:51:07;;;;;;;42.05;16.38;;;11.50;74.20;;;;;;5010637;28;20036;-84
2022/03/26 09:53:44;;;;;;;39.47;15.38;;;11.80;74.30;;;;;;5019765;28;20089;-83
2022/03/26 09:56:12;;;;;;;35.47;15.10;;;11.90;73.00;;;;;;5008516;28;20281;-83
2022/03/26 09:58:40;;;;;;;38.72;16.10;;;12.10;71.00;;;;;;5005516;28;20056;-83
2022/03/26 10:01:12;;;;;;;44.10;17.70;;;12.20;69.90;;;;;;5003717;28;20045;-83
2022/03/26 10:04:30;;;;;;;37.88;15.80;;;15.20;71.10;;;;;;5007585;28;20025;-84
2022/03/26 10:06:57;;;;;;;37.85;14.55;;;12.40;68.00;;;;;;5005813;28;20124;-82
2022/03/26 10:09:33;;;;;;;39.80;16.98;;;12.50;67.60;;;;;;5009084;28;20022;-83
2022/03/26 10:12:15;;;;;;;37.28;15.40;;;12.40;66.50;;;;;;5010724;28;20041;-84
2022/03/26 10:15:08;;;;;;;39.05;15.98;;;12.40;66.90;;;;;;5013635;28;20057;-83
2022/03/26 10:18:33;;;;;;;38.20;15.02;;;12.60;66.50;;;;;;5007190;28;20038;-84
2022/03/26 10:21:08;;;;;;;41.65;16.13;;;12.70;67.10;;;;;;5022461;28;20034;-84
2022/03/26 10:23:55;;;;;;;39.80;16.83;;;12.90;67.10;;;;;;5016288;28;20240;-84
2022/03/26 10:33:30;;;;;;;36.92;15.38;;;13.10;63.80;;;;;;4957012;28;20064;-86
2022/03/26 10:36:30;;;;;;;36.38;15.05;;;13.20;65.60;;;;;;5037437;28;20022;-86
2022/03/26 10:39:02;;;;;;;;;;;16.40;66.30;;;;;;5007002;28;20049;-85
2022/03/26 10:41:53;;;;;;;;;;;13.40;64.10;;;;;;5036394;28;19908;-84
2022/03/26 10:44:24;;;;;;;38.70;15.43;;;10.10;63.30;;;;;;5019753;28;19900;-85
2022/03/26 10:47:07;;;;;;;36.83;14.90;;;13.40;65.00;;;;;;5036099;28;20030;-85
2022/03/26 10:55:54;;;;;;;39.20;16.38;;;13.50;63.50;;;;;;5056261;23;20052;-84
2022/03/26 10:58:28;;;;;;;39.78;16.42;;;13.40;63.20;;;;;;4922804;29;20040;-85
2022/03/26 11:25:43;;;;;;;37.20;15.75;;;13.90;63.40;;;;;;4998009;28;20086;-85
2022/03/26 11:29:20;;;;;;;;;;;;;;;;;;;;;
2022/03/26 11:33:05;;;;;;;;;;;;;;;;;;;;;
2022/03/26 11:39:33;;;;;;;38.90;16.15;;;14.60;62.30;;;;;;4771685;30;20052;-85
2022/03/26 11:42:56;;;;;;;38.80;17.33;;;14.70;61.00;;;;;;4771668;30;20032;-85
2022/03/26 11:52:29;;;;;;;40.60;18.38;;;15.00;59.90;;;;;;4838813;29;20046;-81
2022/03/26 11:55:45;;;;;;;36.72;14.60;;;15.10;59.60;;;;;;5000539;28;20042;-85
2022/03/26 11:58:30;;;;;;;36.78;16.85;;;15.00;60.20;;;;;;4994398;28;20065;-83
2022/03/26 12:01:04;;;;;;;43.00;16.15;;;15.40;58.40;;;;;;4991052;28;20046;-83
2022/03/26 12:03:50;;;;;;;37.05;15.88;;;15.80;56.80;;;;;;4988992;28;20046;-80
2022/03/26 12:06:37;;;;;;;41.83;17.13;;;16.50;57.50;;;;;;4983702;28;20356;-82
2022/03/26 12:09:03;;;;;;;39.80;18.23;;;16.60;56.10;;;;;;4967823;28;20034;-80
2022/03/26 12:11:33;;;;;;;42.40;17.40;;;16.70;55.90;;;;;;4967873;28;20138;-79
2022/03/26 12:14:09;;;;;;;38.40;17.10;;;17.40;55.20;;;;;;4983233;28;20019;-81
2022/03/26 12:16:49;;;;;;;42.28;17.80;;;18.20;53.60;;;;;;4983431;28;20031;-80
2022/03/26 12:19:47;;;;;;;31.60;16.20;;;18.10;52.80;;;;;;4969774;28;20341;-83
2022/03/26 12:22:31;;;;;;;34.03;15.57;;;18.40;52.90;;;;;;4964009;28;20062;-82
2022/03/26 12:25:00;;;;;;;43.00;18.52;;;18.40;52.60;;;;;;4967307;28;20045;-80
2022/03/26 12:27:26;;;;;;;38.63;17.58;;;18.30;53.30;;;;;;4967046;28;20352;-82
2022/03/26 12:29:58;;;;;;;38.63;16.77;;;18.40;52.30;;;;;;4964976;28;20046;-81
2022/03/26 12:32:31;;;;;;;41.47;18.98;;;19.00;52.00;;;;;;4966517;28;20385;-80
2022/03/26 12:35:02;;;;;;;40.00;18.65;;;19.20;50.80;;;;;;4966975;28;20029;-80
2022/03/26 12:37:28;;;;;;;39.30;16.25;;;19.20;50.60;;;;;;4966731;28;20046;-81
2022/03/26 12:39:55;;;;;;;39.53;17.80;;;19.50;51.20;;;;;;4984361;28;20053;-82
2022/03/26 12:42:24;;;;;;;38.65;16.40;;;19.70;50.50;;;;;;4968223;28;20022;-81
2022/03/26 12:44:51;;;;;;;36.58;17.52;;;19.30;50.60;;;;;;4978273;28;20033;-83
2022/03/26 12:47:20;;;;;;;40.00;18.05;;;19.00;52.00;;;;;;4967970;28;20070;-84
2022/03/26 12:49:51;;;;;;;36.10;16.88;;;19.00;51.20;;;;;;4953958;28;20449;-82
2022/03/26 12:52:22;;;;;;;35.95;17.38;;;19.40;51.20;;;;;;4966137;28;20045;-82
2022/03/26 12:54:57;;;;;;;38.35;16.67;;;20.10;49.50;;;;;;4985793;28;20083;-81
2022/03/26 12:57:24;;;;;;;39.60;17.75;;;20.40;49.50;;;;;;4966387;28;20097;-89
2022/03/26 12:59:54;;;;;;;40.50;18.38;;;20.60;48.70;;;;;;4982279;28;20026;-81
2022/03/26 13:02:20;;;;;;;41.80;18.38;;;20.90;48.50;;;;;;4964440;28;20310;-81
2022/03/26 13:04:55;;;;;;;37.35;18.20;;;21.00;48.10;;;;;;4981421;28;20135;-81
2022/03/26 13:07:21;;;;;;;41.53;19.13;;;21.00;47.00;;;;;;4981143;28;20090;-80
2022/03/26 13:09:54;;;;;;;43.40;18.92;;;21.00;47.80;;;;;;4981201;28;20093;-81
2022/03/26 13:12:27;;;;;;;40.30;18.85;;;21.30;48.00;;;;;;4979183;28;20054;-81
2022/03/26 13:14:53;;;;;;;41.35;17.08;;;20.60;47.70;;;;;;4979235;28;20027;-80
2022/03/26 13:17:20;;;;;;;38.72;18.48;;;20.10;48.60;;;;;;4979693;28;20054;-81
2022/03/26 13:19:46;;;;;;;38.50;18.33;;;20.30;49.30;;;;;;4962019;28;20029;-80
2022/03/26 13:22:17;;;;;;;36.75;16.45;;;20.50;48.10;;;;;;4981418;28;20063;-80
2022/03/26 13:24:51;;;;;;;41.80;17.92;;;20.80;47.40;;;;;;4981979;28;20191;-81
2022/03/26 13:27:18;;;;;;;38.70;17.77;;;21.50;46.50;;;;;;4979264;28;20358;-81
2022/03/26 13:29:44;;;;;;;37.92;18.45;;;22.10;45.30;;;;;;4978977;28;20038;-81
2022/03/26 13:32:10;;;;;;;39.20;17.70;;;22.00;46.00;;;;;;4979120;28;20196;-82
2022/03/26 13:34:37;;;;;;;36.72;17.95;;;22.00;44.70;;;;;;4979931;28;20074;-85
2022/03/26 13:37:08;;;;;;;37.88;19.25;;;21.50;45.10;;;;;;4978158;28;20057;-86
2022/03/26 13:39:35;;;;;;;37.22;18.52;;;22.20;45.50;;;;;;4979093;28;20026;-86
2022/03/26 13:42:27;;;;;;;36.40;18.02;;;22.20;46.20;;;;;;4980578;28;20093;-85
2022/03/26 13:44:55;;;;;;;34.88;16.45;;;21.00;47.00;;;;;;4976088;28;20139;-86
2022/03/26 13:47:33;;;;;;;35.55;17.52;;;21.10;47.60;;;;;;4978713;28;20295;-86
2022/03/26 13:50:11;;;;;;;38.10;17.73;;;21.30;46.90;;;;;;4978040;28;20046;-86